Time;durP1;ratioP1;P1;durP2;ratioP2;P2;SDS_P1;SDS_P2;PMS_P1;PMS_P2;Temp;Humidity;BMP_temperature;BMP_pressure;BME280_temperature;BME280_humidity;BME280_pressure;Samples;Min_cycle;Max_cycle;Signal;HPM_P1;HPM_P2
2023/08/14 00:01:14;;;;;;;;;;;;;;;14.72;100.00;101573.53;4969049;28;19930;-79
2023/08/14 00:04:00;;;;;;;;;;;;;;;14.69;100.00;101571.03;4956544;28;19937;-79
2023/08/14 00:06:46;;;;;;;;;;;;;;;14.66;100.00;101568.53;4955074;28;19936;-79
2023/08/14 00:09:32;;;;;;;;;;;;;;;14.64;100.00;101575.72;4956291;28;19936;-79
2023/08/14 00:12:17;;;;;;;;;;;;;;;14.61;100.00;101565.22;4956634;28;20009;-79
2023/08/14 00:15:03;;;;;;;;;;;;;;;14.59;100.00;101565.28;4954890;28;19927;-78
2023/08/14 00:17:50;;;;;;;;;;;;;;;14.55;100.00;101569.06;4953450;28;19932;-78
2023/08/14 00:20:36;;;;;;;;;;;;;;;14.55;100.00;101568.19;4960161;28;20068;-78
2023/08/14 00:23:21;;;;;;;;;;;;;;;14.52;100.00;101575.41;4958162;28;19989;-79
2023/08/14 00:26:07;;;;;;;;;;;;;;;14.50;100.00;101571.09;4959500;28;19931;-78
2023/08/14 00:28:53;;;;;;;;;;;;;;;14.47;100.00;101571.25;4958844;28;19922;-79
2023/08/14 00:31:38;;;;;;;;;;;;;;;14.46;100.00;101575.72;4954961;28;19930;-79
2023/08/14 00:34:24;;;;;;;;;;;;;;;14.44;100.00;101563.41;4956931;28;19933;-78
2023/08/14 00:37:10;;;;;;;;;;;;;;;14.41;100.00;101561.78;4957632;28;19926;-78
2023/08/14 00:39:55;;;;;;;;;;;;;;;14.40;100.00;101554.72;4959321;28;19930;-78
2023/08/14 00:42:45;;;;;;;;;;;;;;;14.38;100.00;101553.91;4957417;28;19926;-79
2023/08/14 00:45:31;;;;;;;;;;;;;;;14.36;100.00;101550.47;4956729;28;19958;-79
2023/08/14 00:48:17;;;;;;;;;;;;;;;14.31;100.00;101553.38;4957921;28;20411;-79
2023/08/14 00:51:02;;;;;;;;;;;;;;;14.30;100.00;101548.13;4957598;28;19972;-79
2023/08/14 00:53:49;;;;;;;;;;;;;;;14.29;100.00;101543.72;4971746;28;20273;-79
2023/08/14 00:56:34;;;;;;;;;;;;;;;14.27;100.00;101541.13;4959046;28;19928;-80
2023/08/14 00:59:20;;;;;;;;;;;;;;;14.28;100.00;101544.69;4969452;28;19922;-80
2023/08/14 01:02:15;;;;;;;;;;;;;;;14.29;100.00;101549.06;4957978;28;20008;-79
2023/08/14 01:05:00;;;;;;;;;;;;;;;14.30;100.00;101535.69;4958290;28;19921;-79
2023/08/14 01:07:46;;;;;;;;;;;;;;;14.30;100.00;101537.47;4956689;28;19927;-79
2023/08/14 01:10:54;;;;;;;;;;;;;;;14.29;100.00;101531.28;4958378;28;19930;-80
2023/08/14 01:13:48;;;;;;;;;;;;;;;14.29;100.00;101530.41;4956995;28;19925;-80
2023/08/14 01:16:34;;;;;;;;;;;;;;;14.28;100.00;101523.38;4961963;28;20286;-80
2023/08/14 01:19:28;;;;;;;;;;;;;;;14.28;100.00;101523.38;4969772;28;19922;-79
2023/08/14 01:22:17;;;;;;;;;;;;;;;14.26;100.00;101529.63;4957681;28;19952;-79
2023/08/14 01:25:21;;;;;;;;;;;;;;;14.22;100.00;101522.72;4956784;28;19929;-79
2023/08/14 01:28:08;;;;;;;;;;;;;;;14.19;100.00;101525.56;4957866;28;19918;-79
2023/08/14 01:30:54;;;;;;;;;;;;;;;14.15;100.00;101525.81;4946061;28;19930;-79
2023/08/14 01:33:40;;;;;;;;;;;;;;;14.12;100.00;101526.81;4959223;28;19926;-80
2023/08/14 01:36:44;;;;;;;;;;;;;;;14.10;100.00;101516.22;4957453;28;19976;-79
2023/08/14 01:39:31;;;;;;;;;;;;;;;14.08;100.00;101519.91;4957924;28;20013;-79
2023/08/14 01:42:18;;;;;;;;;;;;;;;14.07;100.00;101531.50;4938066;28;20031;-79
2023/08/14 01:45:07;;;;;;;;;;;;;;;14.05;100.00;101522.72;4954868;28;21802;-79
2023/08/14 01:47:53;;;;;;;;;;;;;;;14.04;100.00;101527.19;4958175;28;19962;-78
2023/08/14 01:50:42;;;;;;;;;;;;;;;14.04;100.00;101520.97;4954933;28;20032;-78
2023/08/14 01:53:28;;;;;;;;;;;;;;;14.04;100.00;101531.63;4945796;28;19925;-80
2023/08/14 01:56:13;;;;;;;;;;;;;;;14.04;100.00;101520.97;4969303;28;19992;-79
2023/08/14 01:58:59;;;;;;;;;;;;;;;14.04;100.00;101524.53;4966185;28;19958;-79
2023/08/14 02:01:44;;;;;;;;;;;;;;;14.04;100.00;101515.66;4956999;28;20415;-79
2023/08/14 02:04:30;;;;;;;;;;;;;;;14.03;100.00;101512.16;4956626;28;19926;-79
2023/08/14 02:07:16;;;;;;;;;;;;;;;14.04;100.00;101510.34;4954726;28;19932;-79
2023/08/14 02:10:02;;;;;;;;;;;;;;;14.04;100.00;101505.88;4957320;28;20950;-79
2023/08/14 02:12:48;;;;;;;;;;;;;;;14.04;100.00;101499.69;4958056;28;19926;-80
2023/08/14 02:15:33;;;;;;;;;;;;;;;14.04;100.00;101505.00;4958464;28;19988;-79
2023/08/14 02:18:21;;;;;;;;;;;;;;;14.04;100.00;101502.34;4955407;28;19930;-80
2023/08/14 02:21:07;;;;;;;;;;;;;;;14.04;100.00;101494.34;4958577;28;19930;-80
2023/08/14 02:23:52;;;;;;;;;;;;;;;14.04;100.00;101494.34;4956752;28;20401;-79
2023/08/14 02:26:41;;;;;;;;;;;;;;;14.03;100.00;101487.31;4957009;28;20301;-80
2023/08/14 02:29:27;;;;;;;;;;;;;;;14.03;100.00;101479.31;4956594;28;19936;-80
2023/08/14 02:32:13;;;;;;;;;;;;;;;14.02;100.00;101481.16;4955728;28;19933;-80
2023/08/14 02:34:58;;;;;;;;;;;;;;;14.01;100.00;101479.44;4943106;28;19926;-79
2023/08/14 02:37:44;;;;;;;;;;;;;;;14.02;100.00;101469.63;4956745;28;19926;-79
2023/08/14 02:40:29;;;;;;;;;;;;;;;13.99;100.00;101465.31;4950931;28;20346;-79
2023/08/14 02:43:15;;;;;;;;;;;;;;;13.97;100.00;101465.41;4955157;28;20357;-79
2023/08/14 02:46:01;;;;;;;;;;;;;;;13.96;100.00;101455.69;4954430;28;19937;-80
2023/08/14 02:48:47;;;;;;;;;;;;;;;13.94;100.00;101452.25;4954830;28;19985;-80
2023/08/14 02:51:32;;;;;;;;;;;;;;;13.91;100.00;101452.41;4950397;28;19926;-81
2023/08/14 02:54:18;;;;;;;;;;;;;;;13.89;100.00;101459.59;4968226;28;19965;-80
2023/08/14 02:57:04;;;;;;;;;;;;;;;13.87;100.00;101461.47;4954960;28;19969;-79
2023/08/14 02:59:50;;;;;;;;;;;;;;;13.88;100.00;101451.69;4956009;28;20050;-80
2023/08/14 03:02:35;;;;;;;;;;;;;;;13.87;100.00;101453.47;4955314;28;19936;-79
2023/08/14 03:05:21;;;;;;;;;;;;;;;13.89;100.00;101462.25;4954836;28;20282;-80
2023/08/14 03:08:10;;;;;;;;;;;;;;;13.90;100.00;101455.97;4954671;28;20377;-79
2023/08/14 03:10:56;;;;;;;;;;;;;;;13.90;100.00;101455.13;4955473;28;20012;-79
2023/08/14 03:13:42;;;;;;;;;;;;;;;13.91;100.00;101465.72;4955352;28;19926;-79
2023/08/14 03:16:28;;;;;;;;;;;;;;;13.90;100.00;101461.31;4955621;28;20445;-80
2023/08/14 03:19:13;;;;;;;;;;;;;;;13.90;100.00;101455.97;4957785;28;19937;-80
2023/08/14 03:21:59;;;;;;;;;;;;;;;13.91;100.00;101452.41;4959815;28;20377;-79
2023/08/14 03:24:45;;;;;;;;;;;;;;;13.90;100.00;101458.63;4959279;28;20613;-78
2023/08/14 03:27:31;;;;;;;;;;;;;;;13.88;100.00;101457.88;4957370;28;19927;-78
2023/08/14 03:30:16;;;;;;;;;;;;;;;13.84;100.00;101464.28;4958103;28;20476;-79
2023/08/14 03:33:02;;;;;;;;;;;;;;;13.82;100.00;101460.81;4959110;28;19932;-80
2023/08/14 03:35:48;;;;;;;;;;;;;;;13.81;100.00;101464.44;4955004;28;19925;-79
2023/08/14 03:38:33;;;;;;;;;;;;;;;13.80;100.00;101466.25;4957138;28;19926;-79
2023/08/14 03:41:19;;;;;;;;;;;;;;;13.79;100.00;101472.47;4958953;28;20692;-80
2023/08/14 03:44:05;;;;;;;;;;;;;;;13.79;100.00;101468.97;4959397;28;19937;-79
2023/08/14 03:46:50;;;;;;;;;;;;;;;13.77;100.00;101468.19;4958808;28;20472;-79
2023/08/14 03:49:36;;;;;;;;;;;;;;;13.77;100.00;101473.53;4958633;28;19931;-80
2023/08/14 03:52:24;;;;;;;;;;;;;;;13.77;100.00;101470.84;4957836;28;20040;-80
2023/08/14 03:55:10;;;;;;;;;;;;;;;13.75;100.00;101478.03;4958147;28;19928;-79
2023/08/14 03:57:57;;;;;;;;;;;;;;;13.74;100.00;101476.31;4958782;28;20501;-79
2023/08/14 04:00:43;;;;;;;;;;;;;;;13.74;100.00;101474.53;4959060;28;19958;-78
2023/08/14 04:03:29;;;;;;;;;;;;;;;13.71;100.00;101472.88;4960133;28;19926;-78
2023/08/14 04:06:14;;;;;;;;;;;;;;;13.71;100.00;101472.00;4970868;28;19926;-79
2023/08/14 04:09:01;;;;;;;;;;;;;;;13.70;100.00;101468.50;4952715;28;19952;-79
2023/08/14 04:11:47;;;;;;;;;;;;;;;13.69;100.00;101472.06;4961836;28;20385;-79
2023/08/14 04:14:33;;;;;;;;;;;;;;;13.68;100.00;101465.03;4960564;28;19957;-79
2023/08/14 04:17:18;;;;;;;;;;;;;;;13.68;100.00;101466.84;4962361;28;20004;-79
2023/08/14 04:20:04;;;;;;;;;;;;;;;13.66;100.00;101466.91;4959219;28;19972;-79
2023/08/14 04:22:50;;;;;;;;;;;;;;;13.66;100.00;101463.38;4962576;28;19937;-80
2023/08/14 04:25:36;;;;;;;;;;;;;;;13.65;100.00;101464.31;4971518;28;19984;-80
2023/08/14 04:28:21;;;;;;;;;;;;;;;13.65;100.00;101456.34;4960236;28;20362;-80
2023/08/14 04:31:07;;;;;;;;;;;;;;;13.63;100.00;101461.75;4959284;28;19930;-80
2023/08/14 04:33:53;;;;;;;;;;;;;;;13.62;100.00;101457.34;4959957;28;20439;-80
2023/08/14 04:36:38;;;;;;;;;;;;;;;13.62;100.00;101453.84;4972231;28;20446;-80
2023/08/14 04:39:24;;;;;;;;;;;;;;;13.63;100.00;101456.44;4959811;28;19930;-79
2023/08/14 04:42:10;;;;;;;;;;;;;;;13.64;100.00;101459.94;4959635;28;21922;-78
2023/08/14 04:44:55;;;;;;;;;;;;;;;13.64;100.00;101457.28;4961624;28;19988;-79
2023/08/14 04:47:41;;;;;;;;;;;;;;;13.64;100.00;101451.94;4974733;28;19952;-80
2023/08/14 04:50:27;;;;;;;;;;;;;;;13.64;100.00;101460.81;4958528;28;21490;-80
2023/08/14 04:53:12;;;;;;;;;;;;;;;13.65;100.00;101457.22;4969699;28;19932;-79
2023/08/14 04:55:58;;;;;;;;;;;;;;;13.66;100.00;101460.72;4959659;28;19962;-79
2023/08/14 04:58:44;;;;;;;;;;;;;;;13.68;100.00;101457.03;4960979;28;19930;-80
2023/08/14 05:01:29;;;;;;;;;;;;;;;13.69;100.00;101457.91;4958404;28;20292;-80
2023/08/14 05:04:15;;;;;;;;;;;;;;;13.71;100.00;101453.38;4972065;28;20412;-79
2023/08/14 05:07:01;;;;;;;;;;;;;;;13.73;100.00;101458.63;4959698;28;22155;-79
2023/08/14 05:09:48;;;;;;;;;;;;;;;13.74;100.00;101465.66;4951770;28;19918;-79
2023/08/14 05:12:34;;;;;;;;;;;;;;;13.77;100.00;101460.22;4958542;28;19964;-79
2023/08/14 05:15:19;;;;;;;;;;;;;;;13.79;100.00;101463.66;4961237;28;20456;-79
2023/08/14 05:18:05;;;;;;;;;;;;;;;13.81;100.00;101464.44;4959419;28;20322;-79
2023/08/14 05:20:53;;;;;;;;;;;;;;;13.83;100.00;101459.88;4958942;28;19929;-80
2023/08/14 05:23:38;;;;;;;;;;;;;;;13.87;100.00;101464.13;4959701;28;19930;-80
2023/08/14 05:26:24;;;;;;;;;;;;;;;13.89;100.00;101467.56;4961949;28;19933;-79
2023/08/14 05:29:10;;;;;;;;;;;;;;;13.93;100.00;101463.81;4956742;28;20449;-80
2023/08/14 05:31:56;;;;;;;;;;;;;;;13.97;100.00;101462.75;4970014;28;19968;-80
2023/08/14 05:34:43;;;;;;;;;;;;;;;14.02;100.00;101464.31;4958418;28;19938;-79
2023/08/14 05:37:32;;;;;;;;;;;;;;;14.09;100.00;101465.72;4956139;28;19972;-79
2023/08/14 05:40:19;;;;;;;;;;;;;;;14.15;100.00;101459.22;4961232;28;19927;-79
2023/08/14 05:43:07;;;;;;;;;;;;;;;14.21;100.00;101462.44;4959946;28;19929;-80
2023/08/14 05:45:53;;;;;;;;;;;;;;;14.28;100.00;101455.00;4957804;28;19929;-79
2023/08/14 05:48:42;;;;;;;;;;;;;;;14.35;100.00;101459.06;4952165;28;20288;-79
2023/08/14 05:51:27;;;;;;;;;;;;;;;14.44;100.00;101460.38;4959569;28;19930;-79
2023/08/14 05:54:13;;;;;;;;;;;;;;;14.52;100.00;101468.84;4958901;28;20382;-80
2023/08/14 05:56:59;;;;;;;;;;;;;;;14.60;100.00;101465.75;4961181;28;19926;-80
2023/08/14 05:59:45;;;;;;;;;;;;;;;14.67;100.00;101461.84;4959038;28;19926;-78
2023/08/14 06:02:31;;;;;;;;;;;;;;;14.76;100.00;101468.50;4956970;28;19934;-79
2023/08/14 06:05:17;;;;;;;;;;;;;;;14.84;100.00;101457.44;4957777;28;19926;-78
2023/08/14 06:08:10;;;;;;;;;;;;;;;14.91;100.00;101453.50;4956555;28;19926;-78
2023/08/14 06:10:55;;;;;;;;;;;;;;;15.00;100.00;101456.63;4961597;28;19925;-78
2023/08/14 06:13:51;;;;;;;;;;;;;;;;;;;;;
2023/08/14 06:16:37;;;;;;;;;;;;;;;15.17;100.00;101453.03;4955097;28;19926;-78
2023/08/14 06:19:22;;;;;;;;;;;;;;;15.26;100.00;101462.31;4951242;28;19928;-78
2023/08/14 06:22:08;;;;;;;;;;;;;;;15.34;100.00;101460.09;4955876;28;19926;-78
2023/08/14 06:24:54;;;;;;;;;;;;;;;15.41;100.00;101466.78;4958064;28;20423;-79
2023/08/14 06:27:40;;;;;;;;;;;;;;;15.48;100.00;101464.66;4967929;28;19936;-78
2023/08/14 06:30:26;;;;;;;;;;;;;;;15.56;100.00;101466.88;4957010;28;19922;-78
2023/08/14 06:33:11;;;;;;;;;;;;;;;15.63;100.00;101467.41;4956964;28;19928;-79
2023/08/14 06:35:59;;;;;;;;;;;;;;;15.70;100.00;101472.28;4970143;28;20420;-79
2023/08/14 06:38:45;;;;;;;;;;;;;;;15.77;100.00;101467.47;4958461;28;20380;-79
2023/08/14 06:41:30;;;;;;;;;;;;;;;15.82;100.00;101470.75;4957539;28;19926;-80
2023/08/14 06:44:16;;;;;;;;;;;;;;;15.91;100.00;101473.81;4958397;28;19932;-79
2023/08/14 06:47:02;;;;;;;;;;;;;;;15.97;100.00;101469.00;4957593;28;20001;-78
2023/08/14 06:49:48;;;;;;;;;;;;;;;16.06;100.00;101466.75;4966603;28;19958;-79
2023/08/14 06:52:36;;;;;;;;;;;;;;;16.13;100.00;101479.63;4955124;28;19926;-78
2023/08/14 06:55:22;;;;;;;;;;;;;;;16.21;100.00;101471.19;4969601;28;19926;-78
2023/08/14 06:58:08;;;;;;;;;;;;;;;16.29;100.00;101473.41;4968281;28;19937;-78
2023/08/14 07:00:55;;;;;;;;;;;;;;;16.35;100.00;101478.34;4957290;28;20021;-78
2023/08/14 07:03:40;;;;;;;;;;;;;;;16.44;100.00;101476.94;4957717;28;19926;-78
2023/08/14 07:06:26;;;;;;;;;;;;;;;16.52;100.00;101479.16;4970512;28;19929;-78
2023/08/14 07:09:14;;;;;;;;;;;;;;;16.61;100.00;101483.94;4962657;28;20013;-78
2023/08/14 07:11:59;;;;;;;;;;;;;;;16.70;100.00;101483.41;4957826;28;20005;-78
2023/08/14 07:14:45;;;;;;;;;;;;;;;16.78;100.00;101471.38;4956841;28;20116;-78
2023/08/14 07:17:31;;;;;;;;;;;;;;;16.87;100.00;101478.81;4956279;28;19926;-79
2023/08/14 07:20:16;;;;;;;;;;;;;;;16.95;100.00;101481.00;4955776;28;19925;-79
2023/08/14 07:23:02;;;;;;;;;;;;;;;17.04;100.00;101476.91;4955793;28;19926;-78
2023/08/14 07:25:49;;;;;;;;;;;;;;;17.12;100.00;101479.97;4958066;28;19933;-78
2023/08/14 07:28:35;;;;;;;;;;;;;;;17.19;100.00;101484.00;4969747;28;20389;-79
2023/08/14 07:31:20;;;;;;;;;;;;;;;17.27;100.00;101496.03;4973767;28;19926;-78
2023/08/14 07:34:06;;;;;;;;;;;;;;;17.34;100.00;101497.34;4958851;28;19926;-79
2023/08/14 07:36:52;;;;;;;;;;;;;;;17.39;100.00;101497.91;4959835;28;20020;-79
2023/08/14 07:39:37;;;;;;;;;;;;;;;17.48;100.00;101500.00;4961613;28;19930;-79
2023/08/14 07:42:23;;;;;;;;;;;;;;;17.57;100.00;101497.66;4956470;28;19926;-78
2023/08/14 07:45:09;;;;;;;;;;;;;;;17.65;100.00;101498.03;4943971;28;19926;-77
2023/08/14 07:47:55;;;;;;;;;;;;;;;17.72;100.00;101495.81;4935097;28;19976;-79
2023/08/14 07:50:41;;;;;;;;;;;;;;;17.86;100.00;101502.97;4958309;28;19925;-78
2023/08/14 07:53:26;;;;;;;;;;;;;;;17.99;100.00;101505.66;4958965;28;19973;-79
2023/08/14 07:56:12;;;;;;;;;;;;;;;18.10;100.00;101502.31;4959634;28;20807;-78
2023/08/14 07:59:00;;;;;;;;;;;;;;;18.19;100.00;101510.56;4953961;28;20043;-78
2023/08/14 08:01:46;;;;;;;;;;;;;;;18.27;100.00;101512.75;4949693;28;19930;-77
2023/08/14 08:04:36;;;;;;;;;;;;;;;18.35;100.00;101517.56;4970713;28;19930;-77
2023/08/14 08:07:22;;;;;;;;;;;;;;;18.44;100.00;101513.41;4956765;28;19926;-78
2023/08/14 08:10:08;;;;;;;;;;;;;;;18.52;100.00;101516.41;4957185;28;21394;-78
2023/08/14 08:12:53;;;;;;;;;;;;;;;18.66;100.00;101511.91;4964858;28;19926;-77
2023/08/14 08:15:42;;;;;;;;;;;;;;;18.79;100.00;101522.69;4968881;28;20381;-78
2023/08/14 08:18:27;;;;;;;;;;;;;;;18.89;100.00;101523.72;4970512;28;19965;-77
2023/08/14 08:21:16;;;;;;;;;;;;;;;18.98;100.00;101517.75;4956328;28;19977;-78
2023/08/14 08:24:01;;;;;;;;;;;;;;;19.04;100.00;101510.22;4967813;28;19933;-80
2023/08/14 08:26:47;;;;;;;;;;;;;;;19.07;100.00;101515.38;4937845;28;19932;-80
2023/08/14 08:29:33;;;;;;;;;;;;;;;19.07;100.00;101510.88;4949345;28;20020;-78
2023/08/14 08:32:18;;;;;;;;;;;;;;;19.08;100.00;101515.28;4963269;28;19930;-81
2023/08/14 08:35:04;;;;;;;;;;;;;;;19.11;100.00;101519.56;4956551;28;19980;-83
2023/08/14 08:37:50;;;;;;;;;;;;;;;19.12;100.00;101513.25;4946633;28;19926;-82
2023/08/14 08:40:36;;;;;;;;;;;;;;;19.16;100.00;101509.34;4948061;28;19925;-82
2023/08/14 08:43:21;;;;;;;;;;;;;;;19.22;100.00;101508.03;4957038;28;21642;-81
2023/08/14 08:46:08;;;;;;;;;;;;;;;19.25;100.00;101507.84;4955844;28;20113;-82
2023/08/14 08:48:59;;;;;;;;;;;;;;;19.30;100.00;101500.31;4955874;28;20016;-81
2023/08/14 08:51:45;;;;;;;;;;;;;;;19.37;100.00;101489.97;4953846;28;19933;-82
2023/08/14 08:54:31;;;;;;;;;;;;;;;19.46;100.00;101504.56;4955734;28;19922;-80
2023/08/14 08:57:16;;;;;;;;;;;;;;;19.50;100.00;101501.53;4954635;28;19922;-81
2023/08/14 09:00:02;;;;;;;;;;;;;;;19.53;100.00;101503.16;4951105;28;19930;-81
2023/08/14 09:02:48;;;;;;;;;;;;;;;19.56;100.00;101508.31;4955728;28;19933;-80
2023/08/14 09:05:37;;;;;;;;;;;;;;;19.67;100.00;101502.97;4951405;28;19933;-82
2023/08/14 09:08:23;;;;;;;;;;;;;;;19.91;100.00;101504.84;4950306;28;20122;-82
2023/08/14 09:11:12;;;;;;;;;;;;;;;20.22;100.00;101504.38;4956127;28;19972;-82
2023/08/14 09:13:58;;;;;;;;;;;;;;;20.48;100.00;101505.03;4953517;28;19926;-82
2023/08/14 09:16:48;;;;;;;;;;;;;;;20.75;100.00;101495.78;4952458;28;20297;-82
2023/08/14 09:19:34;;;;;;;;;;;;;;;21.02;100.00;101491.06;4947415;28;20583;-82
2023/08/14 09:22:20;;;;;;;;;;;;;;;21.34;100.00;101484.91;4949458;28;19922;-82
2023/08/14 09:25:05;;;;;;;;;;;;;;;21.67;100.00;101476.88;4949451;28;19926;-82
2023/08/14 09:27:52;;;;;;;;;;;;;;;21.80;100.00;101490.22;4945603;28;20461;-81
2023/08/14 09:30:38;;;;;;;;;;;;;;;21.70;100.00;101488.28;4953998;28;20093;-81
2023/08/14 09:33:24;;;;;;;;;;;;;;;21.64;100.00;101494.16;4952222;28;19925;-82
2023/08/14 09:36:11;;;;;;;;;;;;;;;21.70;100.00;101490.13;4952274;28;19934;-82
2023/08/14 09:38:56;;;;;;;;;;;;;;;21.73;100.00;101479.09;4942257;28;19930;-82
2023/08/14 09:41:46;;;;;;;;;;;;;;;21.70;100.00;101479.34;4940546;28;20008;-82
2023/08/14 09:44:35;;;;;;;;;;;;;;;21.67;100.00;101472.34;4952276;28;19957;-82
2023/08/14 09:47:20;;;;;;;;;;;;;;;21.65;100.00;101476.16;4963436;28;20844;-81
2023/08/14 09:50:06;;;;;;;;;;;;;;;21.61;100.00;101470.16;4956000;28;19989;-80
2023/08/14 09:52:52;;;;;;;;;;;;;;;21.56;100.00;101464.28;4956540;28;20048;-81
2023/08/14 09:55:37;;;;;;;;;;;;;;;21.67;100.00;101468.78;4955774;28;20032;-81
2023/08/14 09:58:26;;;;;;;;;;;;;;;21.75;100.00;101460.97;4947144;28;19921;-82
2023/08/14 10:01:15;;;;;;;;;;;;;;;21.75;100.00;101469.06;4942416;28;19919;-82
2023/08/14 10:04:00;;;;;;;;;;;;;;;21.73;100.00;101470.16;4963591;28;20508;-80
2023/08/14 10:06:51;;;;;;;;;;;;;;;21.75;100.00;101466.38;4949832;28;19988;-86
2023/08/14 10:09:38;;;;;;;;;;;;;;;21.75;100.00;101463.66;4956972;28;19984;-86
2023/08/14 10:12:37;;;;;;;;;;;;;;;21.73;100.00;101444.06;4952807;28;20377;-84
2023/08/14 10:15:28;;;;;;;;;;;;;;;21.81;100.00;101447.00;4952896;28;20022;-80
2023/08/14 10:18:14;;;;;;;;;;;;;;;21.90;100.00;101457.97;4955296;28;20023;-81
2023/08/14 10:21:00;;;;;;;;;;;;;;;22.01;100.00;101452.50;4949504;28;19930;-81
2023/08/14 10:23:46;;;;;;;;;;;;;;;22.14;100.00;101454.16;4964172;28;19929;-82
2023/08/14 10:26:32;;;;;;;;;;;;;;;22.24;100.00;101455.94;4954409;28;20065;-77
2023/08/14 10:29:18;;;;;;;;;;;;;;;22.30;100.00;101459.97;4948809;28;19926;-78
2023/08/14 10:32:04;;;;;;;;;;;;;;;22.38;100.00;101454.75;4951810;28;19950;-81
2023/08/14 10:34:50;;;;;;;;;;;;;;;22.45;100.00;101455.06;4954356;28;20212;-82
2023/08/14 10:37:42;;;;;;;;;;;;;;;22.50;100.00;101462.78;4951271;28;19918;-80
2023/08/14 10:40:28;;;;;;;;;;;;;;;22.62;100.00;101461.72;4953861;28;19933;-79
2023/08/14 10:43:13;;;;;;;;;;;;;;;22.80;100.00;101463.81;4953520;28;20405;-79
2023/08/14 10:46:04;;;;;;;;;;;;;;;22.93;100.00;101459.03;4941945;28;19925;-80
2023/08/14 10:48:50;;;;;;;;;;;;;;;23.08;100.00;101461.34;4954140;28;19933;-80
2023/08/14 10:51:35;;;;;;;;;;;;;;;23.24;96.84;101463.53;4949882;28;19961;-79
2023/08/14 10:54:21;;;;;;;;;;;;;;;23.26;94.35;101455.28;4964793;28;19948;-79
2023/08/14 10:57:07;;;;;;;;;;;;;;;23.23;93.71;101463.66;4956707;28;19926;-79
2023/08/14 10:59:57;;;;;;;;;;;;;;;23.23;97.00;101442.06;4954443;28;20495;-79
2023/08/14 11:02:43;;;;;;;;;;;;;;;23.31;94.75;101444.97;4965857;28;20021;-79
2023/08/14 11:05:34;;;;;;;;;;;;;;;23.38;96.31;101439.84;4953839;28;19980;-79
2023/08/14 11:08:27;;;;;;;;;;;;;;;23.49;95.14;101437.03;4960902;28;20449;-79
2023/08/14 11:11:12;;;;;;;;;;;;;;;23.60;94.40;101436.03;4964818;28;19926;-81
2023/08/14 11:13:58;;;;;;;;;;;;;;;23.69;89.57;101434.34;4955290;28;19929;-79
2023/08/14 11:16:49;;;;;;;;;;;;;;;23.71;88.69;101425.06;4947088;28;19958;-78
2023/08/14 11:19:35;;;;;;;;;;;;;;;23.77;89.59;101430.91;4966617;28;22155;-77
2023/08/14 11:22:23;;;;;;;;;;;;;;;23.78;88.43;101419.09;4947582;28;19925;-78
2023/08/14 11:25:09;;;;;;;;;;;;;;;23.72;87.49;101409.72;4950356;28;19933;-80
2023/08/14 11:27:55;;;;;;;;;;;;;;;23.74;88.53;101422.09;4954289;28;19941;-79
2023/08/14 11:30:44;;;;;;;;;;;;;;;23.78;88.76;101421.78;4952427;28;20157;-79
2023/08/14 11:33:30;;;;;;;;;;;;;;;23.94;91.28;101413.09;4948696;28;20005;-79
2023/08/14 11:36:18;;;;;;;;;;;;;;;24.06;90.39;101414.69;4951167;28;19973;-79
2023/08/14 11:39:10;;;;;;;;;;;;;;;24.22;90.03;101405.97;4953503;28;20604;-80
2023/08/14 11:41:55;;;;;;;;;;;;;;;24.28;88.83;101397.28;4954713;28;20385;-80
2023/08/14 11:44:46;;;;;;;;;;;;;;;24.26;88.03;101399.28;4953362;28;19930;-78
2023/08/14 11:47:33;;;;;;;;;;;;;;;24.20;91.20;101402.56;4940335;28;20005;-76
2023/08/14 11:50:18;;;;;;;;;;;;;;;24.25;88.15;101394.84;4936327;28;19965;-77
2023/08/14 11:53:04;;;;;;;;;;;;;;;24.19;86.75;101395.44;4934676;28;20511;-76
2023/08/14 11:55:50;;;;;;;;;;;;;;;24.16;88.47;101408.41;4953309;28;19933;-75
2023/08/14 11:58:38;;;;;;;;;;;;;;;24.14;90.54;101401.28;4947670;28;20858;-76
2023/08/14 12:01:25;;;;;;;;;;;;;;;24.17;88.33;101392.03;4949421;28;19926;-77
2023/08/14 12:04:10;;;;;;;;;;;;;;;24.21;87.77;101388.03;4944734;28;19926;-74
2023/08/14 12:06:56;;;;;;;;;;;;;;;24.29;85.25;101398.13;4928492;28;20416;-76
2023/08/14 12:09:42;;;;;;;;;;;;;;;24.39;82.93;101406.19;4940722;28;20273;-75
2023/08/14 12:12:27;;;;;;;;;;;;;;;24.44;84.48;101397.66;4948897;28;20080;-76
2023/08/14 12:15:13;;;;;;;;;;;;;;;24.45;85.35;101393.94;4950048;28;19929;-76
2023/08/14 12:18:01;;;;;;;;;;;;;;;24.44;84.47;101392.25;4949430;28;19980;-75
2023/08/14 12:20:53;;;;;;;;;;;;;;;24.43;83.45;101396.81;4950686;28;20448;-77
2023/08/14 12:23:46;;;;;;;;;;;;;;;24.43;81.91;101396.81;4948754;28;19921;-76
2023/08/14 12:26:36;;;;;;;;;;;;;;;24.42;84.97;101395.09;4950429;28;19953;-76
2023/08/14 12:29:24;;;;;;;;;;;;;;;24.33;83.73;101394.13;4946981;28;20695;-75
2023/08/14 12:32:12;;;;;;;;;;;;;;;24.23;80.74;101396.84;4948815;28;20132;-76
2023/08/14 12:34:58;;;;;;;;;;;;;;;24.09;80.28;101386.50;4949278;28;20456;-76
2023/08/14 12:37:43;;;;;;;;;;;;;;;24.07;83.53;101383.09;4961863;28;20062;-75
2023/08/14 12:40:32;;;;;;;;;;;;;;;24.12;81.43;101372.69;4950294;28;20017;-78
2023/08/14 12:43:18;;;;;;;;;;;;;;;24.22;87.25;101378.94;4937739;28;19925;-76
2023/08/14 12:46:03;;;;;;;;;;;;;;;24.40;88.82;101370.06;4945620;28;19922;-75
2023/08/14 12:48:49;;;;;;;;;;;;;;;24.56;85.63;101372.09;4953305;28;20389;-75
2023/08/14 12:51:35;;;;;;;;;;;;;;;24.53;83.65;101375.13;4947258;28;19925;-76
2023/08/14 12:54:20;;;;;;;;;;;;;;;24.37;84.58;101373.91;4947011;28;20011;-75
2023/08/14 12:57:07;;;;;;;;;;;;;;;24.35;85.47;101369.63;4949770;28;20017;-75
2023/08/14 12:59:55;;;;;;;;;;;;;;;24.33;85.41;101358.09;4949303;28;21421;-76
2023/08/14 13:02:41;;;;;;;;;;;;;;;24.27;84.43;101359.53;4945623;28;20402;-77
2023/08/14 13:05:27;;;;;;;;;;;;;;;24.23;84.69;101353.59;4948461;28;20065;-75
2023/08/14 13:08:12;;;;;;;;;;;;;;;24.16;85.89;101352.47;4949973;28;20554;-75
2023/08/14 13:10:59;;;;;;;;;;;;;;;24.11;86.14;101355.63;4946618;28;19933;-76
2023/08/14 13:13:44;;;;;;;;;;;;;;;24.13;88.26;101352.78;4949274;28;20017;-77
2023/08/14 13:16:31;;;;;;;;;;;;;;;24.18;88.36;101347.75;4967329;28;19934;-77
2023/08/14 13:19:17;;;;;;;;;;;;;;;24.14;87.71;101355.31;4950909;28;19936;-77
2023/08/14 13:22:02;;;;;;;;;;;;;;;24.16;87.09;101357.88;4951491;28;20533;-77
2023/08/14 13:24:48;;;;;;;;;;;;;;;24.22;87.40;101360.00;4950504;28;19936;-76
2023/08/14 13:27:34;;;;;;;;;;;;;;;24.33;89.92;101356.25;4954302;28;19933;-77
2023/08/14 13:30:19;;;;;;;;;;;;;;;24.45;87.01;101356.91;4961557;28;19929;-78
2023/08/14 13:33:05;;;;;;;;;;;;;;;24.50;87.50;101349.19;4950933;28;19926;-78
2023/08/14 13:35:53;;;;;;;;;;;;;;;24.54;87.30;101342.50;4950965;28;19957;-76
2023/08/14 13:38:42;;;;;;;;;;;;;;;24.66;87.50;101351.25;4948169;28;20032;-77
2023/08/14 13:41:28;;;;;;;;;;;;;;;24.77;90.64;101355.63;4951633;28;19930;-75
2023/08/14 13:44:13;;;;;;;;;;;;;;;24.81;87.02;101343.53;4949385;28;19929;-77
2023/08/14 13:46:59;;;;;;;;;;;;;;;24.86;88.92;101342.19;4950945;28;19969;-76
2023/08/14 13:49:45;;;;;;;;;;;;;;;24.97;88.06;101333.88;4960891;28;20413;-76
2023/08/14 13:52:31;;;;;;;;;;;;;;;25.08;88.06;101341.78;4945360;28;19930;-77
2023/08/14 13:55:16;;;;;;;;;;;;;;;25.20;87.82;101346.94;4949813;28;19926;-77
2023/08/14 13:58:02;;;;;;;;;;;;;;;25.31;89.17;101346.72;4951353;28;19972;-77
2023/08/14 14:00:48;;;;;;;;;;;;;;;25.43;85.60;101343.78;4958084;28;20305;-77
2023/08/14 14:03:34;;;;;;;;;;;;;;;25.44;85.13;101331.94;4955267;28;20440;-77
2023/08/14 14:06:19;;;;;;;;;;;;;;;25.47;85.01;101329.78;4948933;28;19926;-77
2023/08/14 14:09:05;;;;;;;;;;;;;;;25.63;87.28;101329.09;4947345;28;19933;-76